Ponte Serrada, Brazil
Current Conditions -  °F | °C
As of 1:00 PM on Sunday 21 Dec 2014 (Local Time) from SBCH Reporting Station
Broken Clouds Broken Clouds  
Wind Chill: 77°   Ceiling: 3000
Heat Index: NA   Visibility: 6mi
Dew Point: NA   Wind: 23mph
Humidity: NA   Direction: 20°NNE
Pressure: 29.68"   Gusts: 35mph
Location:  26.87°S, 52.02°W
Report Text: SBCH 211500Z 02020G30KT 9999 FEW007 BKN030 FEW035TCU BKN090 25/21 Q1005
Loading
Personal Weather Stations






























Interactive Weather Map New forecast layout! Learn more

10-Day Weather Forecast

Advertisements
Track Severe Weather on mobile